createdAt,value
2018-10-16T00:02:03.939Z,43.68
2018-10-16T00:05:08.546Z,44.23
2018-10-16T00:08:13.606Z,40.50
2018-10-16T00:11:18.295Z,40.13
2018-10-16T00:14:21.214Z,43.90
2018-10-16T00:17:26.019Z,41.67
2018-10-16T00:20:31.975Z,39.20
2018-10-16T00:23:37.790Z,42.97
2018-10-16T00:26:41.290Z,41.47
2018-10-16T00:29:47.226Z,46.03
2018-10-16T00:32:52.093Z,43.50
2018-10-16T00:35:56.004Z,41.60
2018-10-16T00:39:00.262Z,41.15
2018-10-16T00:42:04.951Z,44.33
2018-10-16T00:45:10.571Z,46.73
2018-10-16T00:48:13.719Z,39.58
2018-10-16T00:51:20.485Z,41.87
2018-10-16T00:54:25.094Z,45.48
2018-10-16T00:57:29.795Z,40.20
2018-10-16T01:00:33.782Z,45.93
2018-10-16T01:03:39.167Z,43.10
2018-10-16T01:06:43.936Z,46.20
2018-10-16T01:09:47.458Z,41.23
2018-10-16T01:12:57.293Z,41.50
2018-10-16T01:16:02.507Z,40.87
2018-10-16T01:19:07.531Z,46.20
2018-10-16T01:22:12.336Z,43.08
2018-10-16T01:25:16.312Z,45.10
2018-10-16T01:28:20.990Z,40.50
2018-10-16T01:31:24.667Z,44.38
2018-10-16T01:34:29.351Z,41.90
2018-10-16T01:37:33.455Z,41.90
2018-10-16T01:40:39.821Z,42.60
2018-10-16T01:43:43.978Z,47.30
2018-10-16T01:46:48.766Z,40.73
2018-10-16T01:49:53.339Z,43.33
2018-10-16T01:52:58.780Z,46.87
2018-10-16T01:56:04.031Z,46.97
2018-10-16T01:59:09.927Z,39.40
2018-10-16T02:02:13.007Z,42.30
2018-10-16T02:05:17.563Z,49.60
2018-10-16T02:08:21.006Z,47.07
2018-10-16T02:11:25.117Z,48.48
2018-10-16T02:14:28.851Z,42.97
2018-10-16T02:17:31.683Z,35.00
2018-10-16T02:20:35.124Z,45.43
2018-10-16T02:23:39.179Z,44.30
2018-10-16T02:26:44.271Z,41.00
2018-10-16T02:29:49.358Z,43.10
2018-10-16T02:32:54.858Z,41.42
2018-10-16T02:35:58.799Z,38.80
2018-10-16T02:39:04.563Z,44.53
2018-10-16T02:42:08.943Z,43.20
2018-10-16T02:45:13.172Z,40.17
2018-10-16T02:48:19.099Z,37.00
2018-10-16T02:51:24.787Z,41.10
2018-10-16T02:54:27.601Z,42.67
2018-10-16T02:57:32.927Z,39.90
2018-10-16T03:00:37.014Z,45.10
2018-10-16T03:03:41.287Z,45.70
2018-10-16T03:06:46.062Z,50.33
2018-10-16T03:09:49.807Z,47.03
2018-10-16T03:12:53.783Z,42.50
2018-10-16T03:15:58.075Z,45.50
2018-10-16T03:19:02.594Z,45.70
2018-10-16T03:22:06.106Z,38.93
2018-10-16T03:25:11.290Z,42.35
2018-10-16T03:28:16.663Z,38.35
2018-10-16T03:31:20.111Z,41.57
2018-10-16T03:34:25.443Z,44.98
2018-10-16T03:37:29.607Z,40.60
2018-10-16T03:40:34.518Z,43.33
2018-10-16T03:43:38.859Z,41.53
2018-10-16T03:46:43.802Z,46.17
2018-10-16T03:49:48.166Z,36.37
2018-10-16T03:52:51.847Z,36.70
2018-10-16T03:55:56.345Z,41.35
2018-10-16T03:58:59.799Z,46.95
2018-10-16T04:02:03.626Z,43.50
2018-10-16T04:05:08.010Z,41.83
2018-10-16T04:08:11.547Z,41.00
2018-10-16T04:11:15.822Z,50.93
2018-10-16T04:14:18.693Z,49.80
2018-10-16T04:17:22.547Z,47.90
2018-10-16T04:20:26.166Z,46.80
2018-10-16T04:23:30.307Z,38.37
2018-10-16T04:26:33.755Z,36.83
2018-10-16T04:29:38.468Z,45.23
2018-10-16T04:32:41.932Z,46.60
2018-10-16T04:35:46.807Z,46.27
2018-10-16T04:38:50.813Z,44.73
2018-10-16T04:41:55.274Z,56.10
2018-10-16T04:44:58.366Z,48.93
2018-10-16T04:48:01.848Z,47.87
2018-10-16T04:51:05.982Z,47.27
2018-10-16T04:54:11.210Z,44.53
2018-10-16T04:57:14.766Z,50.83
2018-10-16T05:00:19.087Z,57.65
2018-10-16T05:03:23.185Z,56.28
2018-10-16T05:06:27.691Z,45.50
2018-10-16T05:09:30.618Z,45.88
2018-10-16T05:12:35.007Z,40.53
2018-10-16T05:15:39.874Z,45.63
2018-10-16T05:18:45.774Z,44.93
2018-10-16T05:21:49.349Z,59.03
2018-10-16T05:24:54.039Z,57.57
2018-10-16T05:27:57.290Z,59.60
2018-10-16T05:31:01.797Z,58.63
2018-10-16T05:34:07.391Z,51.13
2018-10-16T05:37:11.606Z,55.77
2018-10-16T05:40:17.234Z,54.00
2018-10-16T05:43:21.375Z,55.13
2018-10-16T05:46:25.691Z,46.10
2018-10-16T05:49:29.586Z,43.15
2018-10-16T05:52:33.906Z,40.52
2018-10-16T05:55:36.914Z,44.83
2018-10-16T05:58:40.891Z,59.73
2018-10-16T06:01:45.558Z,46.87
2018-10-16T06:04:48.525Z,42.50
2018-10-16T06:07:52.775Z,43.45
2018-10-16T06:10:57.271Z,41.57
2018-10-16T06:14:02.224Z,39.83
2018-10-16T06:17:06.048Z,45.97
2018-10-16T06:20:12.027Z,45.60
2018-10-16T06:23:16.223Z,45.37
2018-10-16T06:26:21.612Z,47.40
2018-10-16T06:29:25.831Z,41.73
2018-10-16T06:32:29.954Z,39.63
2018-10-16T06:35:34.287Z,49.20
2018-10-16T06:38:39.154Z,46.07
2018-10-16T06:41:43.723Z,45.40
2018-10-16T06:44:46.774Z,49.33
2018-10-16T06:47:51.044Z,54.97
2018-10-16T06:50:54.495Z,48.87
2018-10-16T06:53:57.995Z,40.77
2018-10-16T06:57:02.026Z,58.15
2018-10-16T07:00:06.904Z,53.50
2018-10-16T07:03:11.382Z,44.58
2018-10-16T07:06:15.363Z,49.30
2018-10-16T07:09:19.295Z,38.35
2018-10-16T07:12:23.659Z,50.75
2018-10-16T07:15:28.766Z,59.70
2018-10-16T07:18:32.222Z,52.55
2018-10-16T07:21:35.999Z,43.98
2018-10-16T07:24:40.870Z,44.30
2018-10-16T07:27:45.639Z,39.75
2018-10-16T07:30:49.086Z,45.80
2018-10-16T07:33:54.499Z,42.95
2018-10-16T07:36:58.602Z,46.50
2018-10-16T07:40:02.810Z,45.80
2018-10-16T07:43:05.770Z,50.33
2018-10-16T07:46:09.927Z,33.70
2018-10-16T07:49:13.394Z,37.45
2018-10-16T07:52:16.318Z,35.58
2018-10-16T07:55:19.883Z,37.00
2018-10-16T07:58:24.113Z,35.03
2018-10-16T08:01:28.970Z,42.60
2018-10-16T08:04:32.766Z,38.40
2018-10-16T08:07:37.095Z,40.08
2018-10-16T08:10:42.270Z,34.83
2018-10-16T08:13:46.483Z,34.33
2018-10-16T08:16:50.488Z,30.95
2018-10-16T08:19:53.639Z,29.80
2018-10-16T08:22:57.168Z,32.65
2018-10-16T08:26:01.477Z,40.23
2018-10-16T08:29:05.041Z,38.35
2018-10-16T08:32:09.593Z,35.43
2018-10-16T08:35:15.721Z,31.65
2018-10-16T08:38:28.962Z,36.05
2018-10-16T08:41:37.577Z,28.38
2018-10-16T08:45:22.360Z,35.90
2018-10-16T08:48:36.742Z,40.50
2018-10-16T08:51:46.695Z,32.90
2018-10-16T08:54:50.264Z,29.37
2018-10-16T08:57:55.259Z,28.62
2018-10-16T09:00:59.622Z,36.05
2018-10-16T09:04:05.923Z,34.00
2018-10-16T09:07:10.099Z,25.80
2018-10-16T09:10:14.761Z,32.98
2018-10-16T09:13:20.479Z,36.50
2018-10-16T09:16:24.183Z,24.55
2018-10-16T09:19:27.990Z,39.60
2018-10-16T09:22:32.799Z,32.75
2018-10-16T09:25:35.819Z,32.38
2018-10-16T09:28:40.210Z,30.30
2018-10-16T09:31:44.465Z,25.52
2018-10-16T09:34:48.495Z,25.00
2018-10-16T09:37:54.191Z,34.03
2018-10-16T09:40:59.951Z,34.45
2018-10-16T09:44:04.719Z,23.27
2018-10-16T09:47:09.514Z,24.45
2018-10-16T09:50:13.574Z,22.15
2018-10-16T09:53:17.647Z,22.48
2018-10-16T09:56:22.522Z,25.40
2018-10-16T09:59:26.686Z,22.42
2018-10-16T10:02:31.075Z,23.87
2018-10-16T10:05:36.058Z,18.90
2018-10-16T10:08:41.827Z,19.55
2018-10-16T10:11:46.014Z,20.92
2018-10-16T10:14:50.918Z,22.85
2018-10-16T10:17:55.794Z,20.25
2018-10-16T10:21:00.447Z,16.65
2018-10-16T10:24:05.051Z,15.72
2018-10-16T10:27:09.547Z,16.85
2018-10-16T10:30:13.892Z,23.60
2018-10-16T10:33:17.627Z,15.15
2018-10-16T10:36:21.050Z,20.52
2018-10-16T10:39:25.467Z,13.72
2018-10-16T10:42:30.106Z,14.85
2018-10-16T10:45:34.571Z,20.00
2018-10-16T10:48:38.226Z,13.80
2018-10-16T10:51:43.083Z,14.28
2018-10-16T10:54:46.674Z,13.45
2018-10-16T10:57:51.635Z,16.40
2018-10-16T11:00:56.530Z,14.58
2018-10-16T11:04:02.411Z,16.15
2018-10-16T11:07:07.226Z,19.30
2018-10-16T11:10:12.806Z,15.32
2018-10-16T11:13:18.063Z,20.12
2018-10-16T11:16:23.492Z,15.85
2018-10-16T11:19:29.112Z,19.12
2018-10-16T11:22:33.179Z,17.42
2018-10-16T11:25:37.390Z,16.20
2018-10-16T11:28:41.079Z,19.57
2018-10-16T11:31:44.032Z,20.80
2018-10-16T11:34:47.355Z,15.18
2018-10-16T11:37:50.419Z,18.95
2018-10-16T11:40:54.347Z,15.83
2018-10-16T11:43:59.174Z,20.62
2018-10-16T11:47:02.748Z,23.02
2018-10-16T11:50:07.053Z,18.32
2018-10-16T11:53:11.282Z,21.68
2018-10-16T11:56:15.322Z,18.45
2018-10-16T11:59:20.286Z,17.45
2018-10-16T12:02:24.377Z,23.83
2018-10-16T12:05:27.446Z,21.50
2018-10-16T12:08:32.495Z,15.30
2018-10-16T12:11:37.886Z,17.05
2018-10-16T12:14:43.801Z,14.25
2018-10-16T12:17:52.831Z,14.83
2018-10-16T12:21:02.619Z,16.27
2018-10-16T12:24:07.591Z,20.25
2018-10-16T12:27:12.781Z,17.25
2018-10-16T12:30:17.831Z,15.30
2018-10-16T12:33:22.561Z,12.82
2018-10-16T12:36:25.769Z,20.02
2018-10-16T12:39:30.067Z,27.82
2018-10-16T12:42:33.188Z,13.32
2018-10-16T12:45:36.880Z,23.12
2018-10-16T12:48:41.216Z,19.87
2018-10-16T12:51:45.111Z,20.10
2018-10-16T12:54:48.831Z,23.38
2018-10-16T12:57:53.146Z,21.35
2018-10-16T13:00:56.755Z,22.27
2018-10-16T13:04:01.659Z,20.95
2018-10-16T13:07:13.363Z,26.20
2018-10-16T13:10:17.398Z,23.55
2018-10-16T13:13:29.159Z,27.00
2018-10-16T13:16:40.610Z,23.38
2018-10-16T13:19:45.294Z,23.73
2018-10-16T13:22:50.622Z,24.37
2018-10-16T13:25:55.799Z,17.87
2018-10-16T13:29:01.534Z,17.27
2018-10-16T13:32:11.991Z,17.17
2018-10-16T13:35:20.966Z,19.25
2018-10-16T13:38:29.695Z,16.37
2018-10-16T13:41:34.180Z,14.25
2018-10-16T13:44:42.007Z,14.80
2018-10-16T13:47:48.736Z,17.40
2018-10-16T13:50:56.267Z,16.62
2018-10-16T13:54:02.256Z,35.78
2018-10-16T13:57:14.194Z,28.70
2018-10-16T14:00:23.177Z,21.55
2018-10-16T14:03:35.557Z,23.60
2018-10-16T14:06:41.825Z,24.10
2018-10-16T14:09:50.463Z,14.20
2018-10-16T14:12:55.373Z,19.95
2018-10-16T14:16:12.337Z,19.65
2018-10-16T14:19:19.430Z,16.25
2018-10-16T14:22:30.543Z,16.10
2018-10-16T14:25:36.367Z,40.35
2018-10-16T14:28:41.803Z,23.87
2018-10-16T14:31:47.514Z,16.73
2018-10-16T14:34:54.873Z,19.35
2018-10-16T14:38:06.062Z,17.95
2018-10-16T14:41:12.202Z,17.42
2018-10-16T14:44:44.703Z,27.82
2018-10-16T14:47:59.767Z,13.30
2018-10-16T14:51:05.993Z,14.65
2018-10-16T14:54:22.007Z,17.87
2018-10-16T14:57:38.610Z,18.75
2018-10-16T15:00:44.058Z,15.32
2018-10-16T15:03:55.150Z,18.60
2018-10-16T15:07:02.751Z,33.75
2018-10-16T15:10:14.129Z,16.65
2018-10-16T15:13:23.640Z,23.12
2018-10-16T15:16:34.127Z,19.77
2018-10-16T15:19:43.363Z,19.65
2018-10-16T15:22:49.841Z,16.87
2018-10-16T15:25:57.066Z,15.38
2018-10-16T15:29:02.383Z,22.25
2018-10-16T15:32:15.758Z,16.12
2018-10-16T15:35:19.416Z,15.05
2018-10-16T15:38:36.513Z,22.80
2018-10-16T15:41:51.193Z,20.90
2018-10-16T15:44:57.787Z,25.37
2018-10-16T15:48:01.635Z,28.23
2018-10-16T15:51:06.653Z,25.00
2018-10-16T15:54:18.322Z,26.55
2018-10-16T15:57:23.270Z,24.37
2018-10-16T16:00:40.894Z,25.32
2018-10-16T16:03:46.848Z,29.67
2018-10-16T16:06:51.645Z,21.52
2018-10-16T16:09:57.406Z,25.12
2018-10-16T16:13:05.804Z,26.42
2018-10-16T16:16:10.704Z,30.17
2018-10-16T16:19:15.047Z,24.40
2018-10-16T16:22:18.747Z,22.35
2018-10-16T16:25:23.595Z,25.35
2018-10-16T16:28:28.598Z,21.12
2018-10-16T16:31:32.782Z,24.02
2018-10-16T16:34:37.035Z,20.52
2018-10-16T16:37:41.527Z,23.40
2018-10-16T16:40:47.427Z,21.87
2018-10-16T16:43:51.391Z,25.43
2018-10-16T16:46:55.524Z,19.65
2018-10-16T16:49:58.396Z,22.50
2018-10-16T16:53:02.569Z,23.62
2018-10-16T16:56:07.107Z,26.55
2018-10-16T16:59:12.087Z,31.30
2018-10-16T17:02:15.786Z,30.12
2018-10-16T17:05:19.244Z,29.27
2018-10-16T17:08:22.845Z,27.80
2018-10-16T17:11:26.434Z,33.15
2018-10-16T17:14:31.462Z,35.95
2018-10-16T17:17:36.730Z,36.38
2018-10-16T17:20:42.510Z,33.67
2018-10-16T17:23:46.658Z,27.37
2018-10-16T17:26:50.835Z,28.23
2018-10-16T17:29:55.164Z,40.15
2018-10-16T17:32:59.812Z,29.52
2018-10-16T17:36:03.947Z,26.65
2018-10-16T17:39:09.840Z,30.88
2018-10-16T17:42:26.040Z,31.55
2018-10-16T17:45:36.445Z,45.10
2018-10-16T17:48:47.280Z,34.50
2018-10-16T17:51:53.720Z,35.20
2018-10-16T17:55:02.176Z,37.65
2018-10-16T17:58:18.568Z,35.63
2018-10-16T18:01:23.539Z,49.67
2018-10-16T18:04:40.069Z,37.58
2018-10-16T18:07:45.473Z,45.60
2018-10-16T18:10:52.366Z,43.35
2018-10-16T18:13:59.983Z,38.60
2018-10-16T18:17:11.139Z,37.28
2018-10-16T18:20:17.591Z,37.88
2018-10-16T18:23:31.108Z,35.00
2018-10-16T18:26:36.960Z,31.17
2018-10-16T18:29:45.533Z,38.42
2018-10-16T18:32:58.000Z,39.18
2018-10-16T18:36:02.630Z,39.25
2018-10-16T18:39:09.119Z,43.10
2018-10-16T18:42:14.539Z,47.83
2018-10-16T18:45:18.647Z,47.17
2018-10-16T18:48:29.012Z,37.75
2018-10-16T18:51:35.468Z,46.13
2018-10-16T18:54:42.211Z,43.78
2018-10-16T18:57:49.336Z,43.75
2018-10-16T19:00:54.601Z,50.95
2018-10-16T19:04:00.167Z,41.73
2018-10-16T19:07:14.988Z,36.70
2018-10-16T19:10:32.274Z,47.55
2018-10-16T19:13:36.944Z,58.02
2018-10-16T19:16:41.408Z,54.63
2018-10-16T19:19:47.543Z,54.15
2018-10-16T19:22:55.786Z,48.25
2018-10-16T19:26:05.030Z,57.23
2018-10-16T19:29:15.695Z,44.30
2018-10-16T19:32:34.970Z,47.23
2018-10-16T19:35:40.170Z,42.80
2018-10-16T19:38:54.834Z,49.85
2018-10-16T19:42:02.713Z,47.40
2018-10-16T19:45:15.306Z,61.50
2018-10-16T19:48:21.828Z,56.75
2018-10-16T19:51:30.027Z,56.40
2018-10-16T19:54:36.002Z,52.20
2018-10-16T19:57:43.621Z,67.65
2018-10-16T20:00:52.685Z,38.35
2018-10-16T20:04:02.947Z,43.78
2018-10-16T20:07:12.507Z,43.30
2018-10-16T20:10:20.154Z,45.50
2018-10-16T20:13:25.851Z,45.80
2018-10-16T20:16:32.010Z,48.13
2018-10-16T20:19:38.736Z,43.98
2018-10-16T20:22:45.755Z,46.90
2018-10-16T20:25:50.802Z,39.05
2018-10-16T20:29:01.364Z,38.75
2018-10-16T20:32:09.659Z,47.23
2018-10-16T20:35:19.438Z,49.70
2018-10-16T20:38:28.315Z,49.80
2018-10-16T20:41:34.865Z,31.62
2018-10-16T20:44:40.838Z,40.33
2018-10-16T20:47:55.469Z,39.48
2018-10-16T20:51:05.700Z,39.55
2018-10-16T20:54:11.221Z,43.60
2018-10-16T20:57:23.154Z,46.28
2018-10-16T21:00:30.510Z,50.00
2018-10-16T21:03:35.196Z,50.25
2018-10-16T21:06:41.790Z,43.33
2018-10-16T21:09:47.483Z,48.58
2018-10-16T21:12:54.914Z,40.03
2018-10-16T21:16:00.140Z,45.95
2018-10-16T21:19:13.744Z,48.55
2018-10-16T21:22:22.491Z,49.25
2018-10-16T21:25:33.134Z,55.03
2018-10-16T21:28:44.284Z,47.00
2018-10-16T21:31:52.315Z,41.20
2018-10-16T21:35:02.530Z,43.68
2018-10-16T21:38:07.624Z,42.80
2018-10-16T21:41:14.451Z,40.28
2018-10-16T21:44:20.010Z,39.98
2018-10-16T21:47:39.308Z,41.30
2018-10-16T21:50:53.137Z,44.88
2018-10-16T21:53:59.920Z,45.70
2018-10-16T21:57:04.633Z,42.93
2018-10-16T22:00:18.156Z,46.60
2018-10-16T22:03:24.248Z,53.40
2018-10-16T22:06:32.907Z,45.12
2018-10-16T22:09:41.475Z,39.23
2018-10-16T22:12:50.034Z,37.50
2018-10-16T22:15:56.556Z,40.83
2018-10-16T22:19:02.439Z,41.40
2018-10-16T22:22:07.264Z,43.20
2018-10-16T22:25:15.709Z,45.45
2018-10-16T22:28:24.993Z,42.58
2018-10-16T22:31:28.435Z,39.27
2018-10-16T22:34:32.463Z,41.88
2018-10-16T22:37:36.470Z,33.83
2018-10-16T22:40:39.382Z,35.55
2018-10-16T22:43:43.912Z,37.93
2018-10-16T22:46:48.392Z,36.85
2018-10-16T22:49:52.423Z,47.00
2018-10-16T22:52:56.147Z,41.20
2018-10-16T22:56:00.752Z,40.20
2018-10-16T22:59:04.887Z,39.23
2018-10-16T23:02:08.542Z,33.00
2018-10-16T23:05:12.860Z,36.33
2018-10-16T23:08:17.206Z,29.18
2018-10-16T23:11:22.076Z,30.62
2018-10-16T23:14:27.034Z,29.67
2018-10-16T23:17:29.886Z,43.27
2018-10-16T23:20:33.964Z,40.95
2018-10-16T23:23:38.594Z,46.08
2018-10-16T23:26:42.563Z,46.80
2018-10-16T23:29:47.878Z,31.73
